createdAt,value
2018-09-01T00:00:18.945Z,0.00
2018-09-01T00:01:18.915Z,0.00
2018-09-01T00:02:18.903Z,0.00
2018-09-01T00:03:18.887Z,0.00
2018-09-01T00:04:18.880Z,0.00
2018-09-01T00:05:18.906Z,0.00
2018-09-01T00:06:18.887Z,0.00
2018-09-01T00:07:18.887Z,0.00
2018-09-01T00:08:18.831Z,0.00
2018-09-01T00:09:18.821Z,0.00
2018-09-01T00:10:18.800Z,0.00
2018-09-01T00:11:18.908Z,0.00
2018-09-01T00:12:18.768Z,0.00
2018-09-01T00:13:18.768Z,0.00
2018-09-01T00:14:18.759Z,0.00
2018-09-01T00:15:18.732Z,0.00
2018-09-01T00:16:18.719Z,0.00
2018-09-01T00:17:18.727Z,0.00
2018-09-01T00:18:18.703Z,0.00
2018-09-01T00:19:18.690Z,0.00
2018-09-01T00:20:18.682Z,0.00
2018-09-01T00:21:18.654Z,0.00
2018-09-01T00:22:18.662Z,0.00
2018-09-01T00:23:18.642Z,0.00
2018-09-01T00:24:18.626Z,0.00
2018-09-01T00:25:18.609Z,0.00
2018-09-01T00:26:18.603Z,0.00
2018-09-01T00:27:18.592Z,0.00
2018-09-01T00:28:18.572Z,0.00
2018-09-01T00:29:18.555Z,0.00
2018-09-01T00:30:18.549Z,0.00
2018-09-01T00:31:18.530Z,0.00
2018-09-01T00:32:18.553Z,0.00
2018-09-01T00:33:18.501Z,0.00
2018-09-01T00:34:18.495Z,0.00
2018-09-01T00:35:18.487Z,0.00
2018-09-01T00:36:18.463Z,0.00
2018-09-01T00:37:18.479Z,0.00
2018-09-01T00:38:18.440Z,0.00
2018-09-01T00:39:18.434Z,0.00
2018-09-01T00:40:18.428Z,0.00
2018-09-01T00:41:18.404Z,0.00
2018-09-01T00:42:18.423Z,0.00
2018-09-01T00:43:18.418Z,0.00
2018-09-01T00:44:18.383Z,0.00
2018-09-01T00:45:18.360Z,0.00
2018-09-01T00:46:18.334Z,0.00
2018-09-01T00:47:18.332Z,0.00
2018-09-01T00:48:18.339Z,0.00
2018-09-01T00:49:18.303Z,0.00
2018-09-01T00:50:18.282Z,0.00
2018-09-01T00:51:18.273Z,0.00
2018-09-01T00:52:18.271Z,0.00
2018-09-01T00:53:18.266Z,0.00
2018-09-01T00:54:18.243Z,0.00
2018-09-01T00:55:18.216Z,0.00
2018-09-01T00:56:18.213Z,0.00
2018-09-01T00:57:18.199Z,0.00
2018-09-01T00:58:18.218Z,0.00
2018-09-01T00:59:18.464Z,0.00
2018-09-01T01:00:18.159Z,0.00
2018-09-01T01:01:18.153Z,0.00
2018-09-01T01:02:18.139Z,0.00
2018-09-01T01:03:18.140Z,0.00
2018-09-01T01:04:18.102Z,0.00
2018-09-01T01:05:18.081Z,0.00
2018-09-01T01:06:18.100Z,0.00
2018-09-01T01:07:18.064Z,0.00
2018-09-01T01:08:18.049Z,0.00
2018-09-01T01:09:18.074Z,0.00
2018-09-01T01:10:18.238Z,0.00
2018-09-01T01:11:18.035Z,0.00
2018-09-01T01:12:17.997Z,0.00
2018-09-01T01:13:17.976Z,0.00
2018-09-01T01:14:17.961Z,0.00
2018-09-01T01:15:17.947Z,0.00
2018-09-01T01:16:17.977Z,0.00
2018-09-01T01:17:17.933Z,0.00
2018-09-01T01:18:17.913Z,0.00
2018-09-01T01:19:17.897Z,0.00
2018-09-01T01:20:17.890Z,0.00
2018-09-01T01:21:18.235Z,0.00
2018-09-01T01:22:17.861Z,0.00
2018-09-01T01:23:17.844Z,0.00
2018-09-01T01:24:17.835Z,0.00
2018-09-01T01:25:17.825Z,0.00
2018-09-01T01:26:17.805Z,0.00
2018-09-01T01:27:17.805Z,0.00
2018-09-01T01:28:17.781Z,0.00
2018-09-01T01:29:17.774Z,0.00
2018-09-01T01:30:17.756Z,0.00
2018-09-01T01:31:17.745Z,0.00
2018-09-01T01:32:17.780Z,0.00
2018-09-01T01:33:17.706Z,0.00
2018-09-01T01:34:17.700Z,0.00
2018-09-01T01:35:17.693Z,0.00
2018-09-01T01:36:17.680Z,0.00
2018-09-01T01:37:17.657Z,0.00
2018-09-01T01:38:17.686Z,0.00
2018-09-01T01:39:17.636Z,0.00
2018-09-01T01:40:17.623Z,0.00
2018-09-01T01:41:17.609Z,0.00
2018-09-01T01:42:17.583Z,0.00
2018-09-01T01:43:17.607Z,0.00
2018-09-01T01:44:17.626Z,0.00
2018-09-01T01:45:17.548Z,0.00
2018-09-01T01:46:17.538Z,0.00
2018-09-01T01:47:17.513Z,0.00
2018-09-01T01:48:17.513Z,0.00
2018-09-01T01:49:17.496Z,0.00
2018-09-01T01:50:17.482Z,0.00
2018-09-01T01:51:17.458Z,0.00
2018-09-01T01:52:17.446Z,0.00
2018-09-01T01:53:17.441Z,0.00
2018-09-01T01:54:17.454Z,0.00
2018-09-01T01:55:17.406Z,0.00
2018-09-01T01:56:17.425Z,0.00
2018-09-01T01:57:17.383Z,0.00
2018-09-01T01:58:17.373Z,0.00
2018-09-01T01:59:17.430Z,0.00
2018-09-01T02:00:17.348Z,0.00
2018-09-01T02:01:17.336Z,0.00
2018-09-01T02:02:17.319Z,0.00
2018-09-01T02:03:17.304Z,0.00
2018-09-01T02:04:17.289Z,0.00
2018-09-01T02:05:17.279Z,0.00
2018-09-01T02:06:17.263Z,0.00
2018-09-01T02:07:17.253Z,0.00
2018-09-01T02:08:17.239Z,0.00
2018-09-01T02:09:17.219Z,0.00
2018-09-01T02:10:17.243Z,0.00
2018-09-01T02:11:17.197Z,0.00
2018-09-01T02:12:17.178Z,0.00
2018-09-01T02:13:17.164Z,0.00
2018-09-01T02:14:17.177Z,0.00
2018-09-01T02:15:17.145Z,0.00
2018-09-01T02:16:17.185Z,0.00
2018-09-01T02:17:17.111Z,0.00
2018-09-01T02:18:17.094Z,0.00
2018-09-01T02:19:17.082Z,0.00
2018-09-01T02:20:17.065Z,0.00
2018-09-01T02:21:17.044Z,0.00
2018-09-01T02:22:17.036Z,0.00
2018-09-01T02:23:17.024Z,0.00
2018-09-01T02:24:17.012Z,0.00
2018-09-01T02:25:16.998Z,0.00
2018-09-01T02:26:16.982Z,0.00
2018-09-01T02:27:17.006Z,0.00
2018-09-01T02:28:16.945Z,0.00
2018-09-01T02:29:16.976Z,0.00
2018-09-01T02:30:16.927Z,0.00
2018-09-01T02:31:16.917Z,0.00
2018-09-01T02:32:16.938Z,0.00
2018-09-01T02:33:16.917Z,0.00
2018-09-01T02:34:16.876Z,0.00
2018-09-01T02:35:16.849Z,0.00
2018-09-01T02:36:16.842Z,0.00
2018-09-01T02:37:16.823Z,0.00
2018-09-01T02:38:16.808Z,0.00
2018-09-01T02:39:16.805Z,0.00
2018-09-01T02:40:16.783Z,0.00
2018-09-01T02:41:16.774Z,0.00
2018-09-01T02:42:16.748Z,0.00
2018-09-01T02:43:16.739Z,0.00
2018-09-01T02:44:16.752Z,0.00
2018-09-01T02:45:16.712Z,0.00
2018-09-01T02:46:16.693Z,0.00
2018-09-01T02:47:16.684Z,0.00
2018-09-01T02:48:16.689Z,0.00
2018-09-01T02:49:16.660Z,0.00
2018-09-01T02:50:16.714Z,0.00
2018-09-01T02:51:16.624Z,0.00
2018-09-01T02:52:16.617Z,0.00
2018-09-01T02:53:16.604Z,0.00
2018-09-01T02:54:16.587Z,0.00
2018-09-01T02:55:16.573Z,0.00
2018-09-01T02:56:16.583Z,0.00
2018-09-01T02:57:16.532Z,0.00
2018-09-01T02:58:16.517Z,0.00
2018-09-01T02:59:16.571Z,0.00
2018-09-01T03:00:16.502Z,0.00
2018-09-01T03:01:16.834Z,0.00
2018-09-01T03:02:16.475Z,0.00
2018-09-01T03:03:16.459Z,0.00
2018-09-01T03:04:16.451Z,0.00
2018-09-01T03:05:16.426Z,0.00
2018-09-01T03:06:16.414Z,0.00
2018-09-01T03:07:16.406Z,0.00
2018-09-01T03:08:16.410Z,0.00
2018-09-01T03:09:16.376Z,0.00
2018-09-01T03:10:16.350Z,0.00
2018-09-01T03:11:16.344Z,0.00
2018-09-01T03:12:16.329Z,0.00
2018-09-01T03:13:16.334Z,0.00
2018-09-01T03:14:16.301Z,0.00
2018-09-01T03:15:16.281Z,0.00
2018-09-01T03:16:16.268Z,0.00
2018-09-01T03:17:16.253Z,0.00
2018-09-01T03:18:16.233Z,0.00
2018-09-01T03:19:16.228Z,0.00
2018-09-01T03:20:16.215Z,0.00
2018-09-01T03:21:16.196Z,0.00
2018-09-01T03:22:16.215Z,0.00
2018-09-01T03:23:16.198Z,0.00
2018-09-01T03:24:16.160Z,0.00
2018-09-01T03:25:16.148Z,0.00
2018-09-01T03:26:16.121Z,0.00
2018-09-01T03:27:16.119Z,0.00
2018-09-01T03:28:16.133Z,0.00
2018-09-01T03:29:16.087Z,0.00
2018-09-01T03:30:16.077Z,0.00
2018-09-01T03:31:16.054Z,0.00
2018-09-01T03:32:16.040Z,0.00
2018-09-01T03:33:16.072Z,0.00
2018-09-01T03:34:16.004Z,0.00
2018-09-01T03:35:15.999Z,0.00
2018-09-01T03:36:15.984Z,0.00
2018-09-01T03:37:15.971Z,0.00
2018-09-01T03:38:15.947Z,0.00
2018-09-01T03:39:15.947Z,0.00
2018-09-01T03:40:15.969Z,0.00
2018-09-01T03:41:15.919Z,0.00
2018-09-01T03:42:15.893Z,0.00
2018-09-01T03:43:15.945Z,0.00
2018-09-01T03:44:15.864Z,0.00
2018-09-01T03:45:15.858Z,0.00
2018-09-01T03:46:15.850Z,0.00
2018-09-01T03:47:15.833Z,0.00
2018-09-01T03:48:15.808Z,0.00
2018-09-01T03:49:15.816Z,0.00
2018-09-01T03:50:15.790Z,0.00
2018-09-01T03:51:15.785Z,0.00
2018-09-01T03:52:15.762Z,0.00
2018-09-01T03:53:15.740Z,0.00
2018-09-01T03:54:15.741Z,0.00
2018-09-01T03:55:15.721Z,0.00
2018-09-01T03:56:15.708Z,0.00
2018-09-01T03:57:15.691Z,0.00
2018-09-01T03:58:15.727Z,0.00
2018-09-01T03:59:15.666Z,0.00
2018-09-01T04:00:15.651Z,0.00
2018-09-01T04:01:15.644Z,0.00
2018-09-01T04:02:15.623Z,0.00
2018-09-01T04:03:15.624Z,0.00
2018-09-01T04:04:15.619Z,0.00
2018-09-01T04:05:15.583Z,0.00
2018-09-01T04:06:15.564Z,0.00
2018-09-01T04:07:15.555Z,0.00
2018-09-01T04:08:15.535Z,0.00
2018-09-01T04:09:15.531Z,0.00
2018-09-01T04:10:15.515Z,0.00
2018-09-01T04:11:15.493Z,0.00
2018-09-01T04:12:15.521Z,0.00
2018-09-01T04:13:15.476Z,4.00
2018-09-01T04:14:15.456Z,4.00
2018-09-01T04:15:15.446Z,0.00
2018-09-01T04:16:15.500Z,4.00
2018-09-01T04:17:15.420Z,0.00
2018-09-01T04:18:15.408Z,4.00
2018-09-01T04:19:15.387Z,8.00
2018-09-01T04:20:15.373Z,4.00
2018-09-01T04:21:15.363Z,4.00
2018-09-01T04:22:15.383Z,4.00
2018-09-01T04:23:15.335Z,8.00
2018-09-01T04:24:15.311Z,8.00
2018-09-01T04:25:15.296Z,8.00
2018-09-01T04:26:15.289Z,12.00
2018-09-01T04:27:15.297Z,12.00
2018-09-01T04:28:15.272Z,12.00
2018-09-01T04:29:15.244Z,16.00
2018-09-01T04:30:15.237Z,20.00
2018-09-01T04:31:15.243Z,20.00
2018-09-01T04:32:15.203Z,24.00
2018-09-01T04:33:15.212Z,28.00
2018-09-01T04:34:15.174Z,32.00
2018-09-01T04:35:15.158Z,32.00
2018-09-01T04:36:15.148Z,36.00
2018-09-01T04:37:15.192Z,40.00
2018-09-01T04:38:15.126Z,40.00
2018-09-01T04:39:15.113Z,48.00
2018-09-01T04:40:15.090Z,52.00
2018-09-01T04:41:15.080Z,56.00
2018-09-01T04:42:15.050Z,60.00
2018-09-01T04:43:15.076Z,64.00
2018-09-01T04:44:15.037Z,68.00
2018-09-01T04:45:15.020Z,72.00
2018-09-01T04:46:15.011Z,80.00
2018-09-01T04:47:14.980Z,80.00
2018-09-01T04:48:15.050Z,88.00
2018-09-01T04:49:14.958Z,92.00
2018-09-01T04:50:14.949Z,100.00
2018-09-01T04:51:14.936Z,104.00
2018-09-01T04:52:14.916Z,108.00
2018-09-01T04:53:14.900Z,116.00
2018-09-01T04:54:14.892Z,120.00
2018-09-01T04:55:14.871Z,128.00
2018-09-01T04:56:14.861Z,136.00
2018-09-01T04:57:14.838Z,140.00
2018-09-01T04:58:14.827Z,148.00
2018-09-01T04:59:14.846Z,152.00
2018-09-01T05:00:14.794Z,160.00
2018-09-01T05:01:14.789Z,168.00
2018-09-01T05:02:14.767Z,172.00
2018-09-01T05:03:14.745Z,184.00
2018-09-01T05:04:14.764Z,188.00
2018-09-01T05:05:14.729Z,192.00
2018-09-01T05:06:14.715Z,204.00
2018-09-01T05:07:14.697Z,208.00
2018-09-01T05:08:14.670Z,220.00
2018-09-01T05:09:14.700Z,224.00
2018-09-01T05:10:14.644Z,236.00
2018-09-01T05:11:14.636Z,244.00
2018-09-01T05:12:14.631Z,252.00
2018-09-01T05:13:14.610Z,256.00
2018-09-01T05:14:14.903Z,264.00
2018-09-01T05:15:14.578Z,276.00
2018-09-01T05:16:14.568Z,284.00
2018-09-01T05:17:14.556Z,288.00
2018-09-01T05:18:14.534Z,300.00
2018-09-01T05:19:14.517Z,308.00
2018-09-01T05:20:14.533Z,316.00
2018-09-01T05:21:14.499Z,332.00
2018-09-01T05:22:14.483Z,348.00
2018-09-01T05:23:14.452Z,372.00
2018-09-01T05:24:14.477Z,384.00
2018-09-01T05:25:14.465Z,376.00
2018-09-01T05:26:14.424Z,376.00
2018-09-01T05:27:14.410Z,388.00
2018-09-01T05:28:14.386Z,408.00
2018-09-01T05:29:14.378Z,436.00
2018-09-01T05:30:14.397Z,456.00
2018-09-01T05:31:14.357Z,468.00
2018-09-01T05:32:14.334Z,464.00
2018-09-01T05:33:14.321Z,480.00
2018-09-01T05:34:14.333Z,508.00
2018-09-01T05:35:14.289Z,516.00
2018-09-01T05:36:14.269Z,536.00
2018-09-01T05:37:14.283Z,544.00
2018-09-01T05:38:14.243Z,548.00
2018-09-01T05:39:14.226Z,552.00
2018-09-01T05:40:14.206Z,584.00
2018-09-01T05:41:14.193Z,600.00
2018-09-01T05:42:14.213Z,596.00
2018-09-01T05:43:14.166Z,644.00
2018-09-01T05:44:14.154Z,644.00
2018-09-01T05:45:14.132Z,644.00
2018-09-01T05:46:14.114Z,712.00
2018-09-01T05:47:14.144Z,744.00
2018-09-01T05:48:14.099Z,728.00
2018-09-01T05:49:14.080Z,680.00
2018-09-01T05:50:14.116Z,660.00
2018-09-01T05:51:14.046Z,660.00
2018-09-01T05:52:14.043Z,632.00
2018-09-01T05:53:14.036Z,716.00
2018-09-01T05:54:14.013Z,740.00
2018-09-01T05:55:13.995Z,720.00
2018-09-01T05:56:13.978Z,708.00
2018-09-01T05:57:13.958Z,716.00
2018-09-01T05:58:13.943Z,744.00
2018-09-01T05:59:13.931Z,808.00
2018-09-01T06:00:13.925Z,876.00
2018-09-01T06:01:13.925Z,904.00
2018-09-01T06:02:13.893Z,868.00
2018-09-01T06:03:13.871Z,836.00
2018-09-01T06:04:13.859Z,820.00
2018-09-01T06:05:13.856Z,824.00
2018-09-01T06:06:13.997Z,812.00
2018-09-01T06:07:13.826Z,784.00
2018-09-01T06:08:13.811Z,780.00
2018-09-01T06:09:13.873Z,808.00
2018-09-01T06:10:13.780Z,920.00
2018-09-01T06:11:13.790Z,888.00
2018-09-01T06:12:13.747Z,880.00
2018-09-01T06:13:13.754Z,948.00
2018-09-01T06:14:13.731Z,996.00
2018-09-01T06:15:13.712Z,1036.00
2018-09-01T06:16:13.696Z,1064.00
2018-09-01T06:17:13.676Z,1180.00
2018-09-01T06:18:13.678Z,1180.00
2018-09-01T06:19:13.697Z,1144.00
2018-09-01T06:20:13.691Z,1324.00
2018-09-01T06:21:13.629Z,1224.00
2018-09-01T06:22:13.618Z,1228.00
2018-09-01T06:23:13.596Z,1096.00
2018-09-01T06:24:13.591Z,1112.00
2018-09-01T06:25:13.576Z,1124.00
2018-09-01T06:26:13.555Z,1068.00
2018-09-01T06:27:13.546Z,1084.00
2018-09-01T06:28:13.537Z,1048.00
2018-09-01T06:29:13.553Z,1028.00
2018-09-01T06:30:13.557Z,1040.00
2018-09-01T06:31:13.493Z,1096.00
2018-09-01T06:32:13.477Z,1032.00
2018-09-01T06:33:13.468Z,1124.00
2018-09-01T06:34:13.515Z,1100.00
2018-09-01T06:35:13.478Z,1124.00
2018-09-01T06:36:13.428Z,1116.00
2018-09-01T06:37:13.412Z,1196.00
2018-09-01T06:38:13.397Z,1184.00
2018-09-01T06:39:13.429Z,1316.00
2018-09-01T06:40:13.376Z,1472.00
2018-09-01T06:41:13.376Z,1372.00
2018-09-01T06:42:13.351Z,1240.00
2018-09-01T06:43:13.334Z,1292.00
2018-09-01T06:44:13.328Z,1312.00
2018-09-01T06:45:13.369Z,1376.00
2018-09-01T06:46:13.289Z,1444.00
2018-09-01T06:47:13.273Z,1424.00
2018-09-01T06:48:13.269Z,1496.00
2018-09-01T06:49:13.259Z,1612.00
2018-09-01T06:50:13.239Z,1612.00
2018-09-01T06:51:13.290Z,1664.00
2018-09-01T06:52:13.218Z,1272.00
2018-09-01T06:53:13.203Z,1096.00
2018-09-01T06:54:13.192Z,1080.00
2018-09-01T06:55:13.175Z,1356.00
2018-09-01T06:56:13.170Z,1264.00
2018-09-01T06:57:13.191Z,1260.00
2018-09-01T06:58:13.148Z,1328.00
2018-09-01T06:59:13.133Z,1304.00
2018-09-01T07:00:13.119Z,1312.00
2018-09-01T07:01:13.101Z,1276.00
2018-09-01T07:02:13.152Z,1180.00
2018-09-01T07:03:13.082Z,1256.00
2018-09-01T07:04:13.078Z,1320.00
2018-09-01T07:05:13.062Z,1248.00
2018-09-01T07:06:13.047Z,1168.00
2018-09-01T07:07:13.037Z,1252.00
2018-09-01T07:08:13.053Z,956.00
2018-09-01T07:09:13.004Z,1188.00
2018-09-01T07:10:13.004Z,1232.00
2018-09-01T07:11:12.976Z,1240.00
2018-09-01T07:12:12.976Z,1152.00
2018-09-01T07:13:12.991Z,1068.00
2018-09-01T07:14:12.954Z,1096.00
2018-09-01T07:15:12.938Z,1072.00
2018-09-01T07:16:12.926Z,996.00
2018-09-01T07:17:12.912Z,1024.00
2018-09-01T07:18:12.946Z,1264.00
2018-09-01T07:19:12.892Z,1552.00
2018-09-01T07:20:12.882Z,1944.00
2018-09-01T07:21:12.854Z,1624.00
2018-09-01T07:22:12.843Z,1316.00
2018-09-01T07:23:12.840Z,1408.00
2018-09-01T07:24:12.860Z,1340.00
2018-09-01T07:25:12.818Z,1284.00
2018-09-01T07:26:12.801Z,1476.00
2018-09-01T07:27:12.800Z,2240.00
2018-09-01T07:28:12.951Z,2260.00
2018-09-01T07:29:12.776Z,1652.00
2018-09-01T07:30:12.790Z,1488.00
2018-09-01T07:31:13.041Z,1592.00
2018-09-01T07:32:12.729Z,1656.00
2018-09-01T07:33:12.719Z,2160.00
2018-09-01T07:34:13.782Z,2124.00
2018-09-01T07:35:12.682Z,2028.00
2018-09-01T07:36:12.679Z,1968.00
2018-09-01T07:37:12.670Z,1724.00
2018-09-01T07:38:12.654Z,1744.00
2018-09-01T07:39:12.643Z,1696.00
2018-09-01T07:40:12.634Z,1620.00
2018-09-01T07:41:12.618Z,1980.00
2018-09-01T07:42:12.637Z,2316.00
2018-09-01T07:43:12.601Z,2220.00
2018-09-01T07:44:12.609Z,2536.00
2018-09-01T07:45:12.568Z,2164.00
2018-09-01T07:46:12.590Z,1968.00
2018-09-01T07:47:12.546Z,1872.00
2018-09-01T07:48:12.897Z,1880.00
2018-09-01T07:49:12.514Z,2468.00
2018-09-01T07:50:12.512Z,2412.00
2018-09-01T07:51:12.488Z,2384.00
2018-09-01T07:52:12.483Z,2912.00
2018-09-01T07:53:12.471Z,2712.00
2018-09-01T07:54:12.515Z,2212.00
2018-09-01T07:55:12.458Z,4620.00
2018-09-01T07:56:12.625Z,6924.00
2018-09-01T07:57:12.421Z,1816.00
2018-09-01T07:58:12.419Z,2888.00
2018-09-01T07:59:12.410Z,2728.00
2018-09-01T08:00:12.415Z,2304.00
2018-09-01T08:01:12.385Z,3172.00
2018-09-01T08:02:12.374Z,3288.00
2018-09-01T08:03:12.356Z,3468.00
2018-09-01T08:04:12.405Z,2700.00
2018-09-01T08:05:12.333Z,2072.00
2018-09-01T08:06:12.314Z,1780.00
2018-09-01T08:07:12.299Z,1744.00
2018-09-01T08:08:12.299Z,2088.00
2018-09-01T08:09:12.283Z,2384.00
2018-09-01T08:10:12.287Z,2356.00
2018-09-01T08:11:12.265Z,2436.00
2018-09-01T08:12:12.257Z,2036.00
2018-09-01T08:13:12.249Z,1736.00
2018-09-01T08:14:12.279Z,2564.00
2018-09-01T08:15:12.207Z,3164.00
2018-09-01T08:16:12.193Z,3264.00
2018-09-01T08:17:12.200Z,2420.00
2018-09-01T08:18:12.174Z,13860.00
2018-09-01T08:19:12.165Z,3284.00
2018-09-01T08:20:12.156Z,5496.00
2018-09-01T08:21:12.148Z,6784.00
2018-09-01T08:22:12.170Z,8016.00
2018-09-01T08:23:12.467Z,2536.00
2018-09-01T08:24:12.105Z,2368.00
2018-09-01T08:25:12.088Z,2836.00
2018-09-01T08:26:12.153Z,2304.00
2018-09-01T08:27:12.078Z,2408.00
2018-09-01T08:28:12.057Z,3068.00
2018-09-01T08:29:12.089Z,1628.00
2018-09-01T08:30:12.071Z,2328.00
2018-09-01T08:31:12.028Z,2044.00
2018-09-01T08:32:12.017Z,3892.00
2018-09-01T08:33:12.004Z,4420.00
2018-09-01T08:34:13.354Z,3112.00
2018-09-01T08:35:11.983Z,3884.00
2018-09-01T08:36:11.974Z,4436.00
2018-09-01T08:37:11.961Z,3232.00
2018-09-01T08:38:11.957Z,5176.00
2018-09-01T08:39:11.963Z,9168.00
2018-09-01T08:40:11.937Z,7116.00
2018-09-01T08:41:11.920Z,3556.00
2018-09-01T08:42:11.908Z,2848.00
2018-09-01T08:43:11.902Z,1816.00
2018-09-01T08:44:11.917Z,1584.00
2018-09-01T08:45:11.922Z,1516.00
2018-09-01T08:46:11.859Z,2164.00
2018-09-01T08:47:11.851Z,2988.00
2018-09-01T08:48:11.851Z,3080.00
2018-09-01T08:49:11.864Z,1984.00
2018-09-01T08:50:11.819Z,2384.00
2018-09-01T08:51:11.813Z,2640.00
2018-09-01T08:52:11.831Z,2476.00
2018-09-01T08:53:11.812Z,2256.00
2018-09-01T08:54:11.800Z,2572.00
2018-09-01T08:55:11.770Z,2480.00
2018-09-01T08:56:11.758Z,2400.00
2018-09-01T08:57:11.778Z,2124.00
2018-09-01T08:58:11.732Z,2452.00
2018-09-01T08:59:11.722Z,2408.00
2018-09-01T09:00:11.769Z,2712.00
2018-09-01T09:01:11.691Z,3712.00
2018-09-01T09:02:11.719Z,3820.00
2018-09-01T09:03:11.679Z,4044.00
2018-09-01T09:04:11.674Z,3684.00
2018-09-01T09:05:11.660Z,2864.00
2018-09-01T09:06:11.654Z,2716.00
2018-09-01T09:07:11.679Z,5872.00
2018-09-01T09:08:11.628Z,3828.00
2018-09-01T09:09:11.611Z,2664.00
2018-09-01T09:10:11.640Z,2124.00
2018-09-01T09:11:11.611Z,1972.00
2018-09-01T09:12:11.584Z,3608.00
2018-09-01T09:13:11.946Z,3292.00
2018-09-01T09:14:11.554Z,2972.00
2018-09-01T09:15:11.564Z,4316.00
2018-09-01T09:16:11.546Z,4708.00
2018-09-01T09:17:11.538Z,4648.00
2018-09-01T09:18:11.529Z,4256.00
2018-09-01T09:19:11.824Z,6332.00
2018-09-01T09:20:11.502Z,5360.00
2018-09-01T09:21:11.497Z,5208.00
2018-09-01T09:22:11.492Z,3284.00
2018-09-01T09:23:11.529Z,13792.00
2018-09-01T09:24:11.457Z,9396.00
2018-09-01T09:25:11.444Z,8288.00
2018-09-01T09:26:11.440Z,3836.00
2018-09-01T09:27:11.433Z,3860.00
2018-09-01T09:28:11.485Z,4128.00
2018-09-01T09:29:11.416Z,4264.00
2018-09-01T09:30:11.418Z,4252.00
2018-09-01T09:31:11.397Z,2640.00
2018-09-01T09:32:11.438Z,2296.00
2018-09-01T09:33:11.374Z,2172.00
2018-09-01T09:34:11.371Z,2408.00
2018-09-01T09:35:11.359Z,3052.00
2018-09-01T09:36:11.344Z,2960.00
2018-09-01T09:37:11.333Z,3204.00
2018-09-01T09:38:11.354Z,3176.00
2018-09-01T09:39:11.338Z,8484.00
2018-09-01T09:40:11.308Z,3696.00
2018-09-01T09:41:11.297Z,4844.00
2018-09-01T09:42:11.286Z,3356.00
2018-09-01T09:43:11.282Z,4124.00
2018-09-01T09:44:11.529Z,4564.00
2018-09-01T09:45:11.249Z,8628.00
2018-09-01T09:46:11.252Z,10664.00
2018-09-01T09:47:11.248Z,6564.00
2018-09-01T09:48:11.231Z,3032.00
2018-09-01T09:49:11.382Z,3892.00
2018-09-01T09:50:11.510Z,8376.00
2018-09-01T09:51:11.205Z,6632.00
2018-09-01T09:52:11.197Z,5324.00
2018-09-01T09:53:11.190Z,4140.00
2018-09-01T09:54:11.174Z,7940.00
2018-09-01T09:55:11.197Z,4600.00
2018-09-01T09:56:11.149Z,4868.00
2018-09-01T09:57:11.145Z,5132.00
2018-09-01T09:58:11.201Z,4476.00
2018-09-01T09:59:11.119Z,4560.00
2018-09-01T10:00:11.145Z,3348.00
2018-09-01T10:01:11.113Z,3680.00
2018-09-01T10:02:11.097Z,2904.00
2018-09-01T10:03:11.090Z,2732.00
2018-09-01T10:04:11.072Z,2840.00
2018-09-01T10:05:11.150Z,2660.00
2018-09-01T10:06:11.064Z,2380.00
2018-09-01T10:07:11.048Z,2464.00
2018-09-01T10:08:11.053Z,3028.00
2018-09-01T10:09:11.584Z,4908.00
2018-09-01T10:10:11.048Z,4860.00
2018-09-01T10:11:11.267Z,16672.00
2018-09-01T10:12:11.339Z,12032.00
2018-09-01T10:13:11.049Z,13696.00
2018-09-01T10:14:10.980Z,9224.00
2018-09-01T10:15:11.009Z,4536.00
2018-09-01T10:16:10.966Z,5628.00
2018-09-01T10:17:10.954Z,11092.00
2018-09-01T10:18:10.942Z,12420.00
2018-09-01T10:19:11.133Z,4856.00
2018-09-01T10:20:10.977Z,10264.00
2018-09-01T10:21:11.027Z,4416.00
2018-09-01T10:22:10.940Z,7364.00
2018-09-01T10:23:10.901Z,6292.00
2018-09-01T10:24:11.529Z,6816.00
2018-09-01T10:25:10.903Z,11836.00
2018-09-01T10:26:11.671Z,26176.00
2018-09-01T10:27:10.945Z,14016.00
2018-09-01T10:28:10.859Z,6280.00
2018-09-01T10:29:10.864Z,3696.00
2018-09-01T10:30:10.882Z,3556.00
2018-09-01T10:31:10.841Z,4228.00
2018-09-01T10:32:10.829Z,8712.00
2018-09-01T10:33:10.847Z,3888.00
2018-09-01T10:34:10.803Z,4008.00
2018-09-01T10:35:10.793Z,4112.00
2018-09-01T10:36:10.789Z,4360.00
2018-09-01T10:37:10.779Z,3888.00
2018-09-01T10:38:10.773Z,4792.00
2018-09-01T10:39:10.761Z,5196.00
2018-09-01T10:40:10.755Z,4932.00
2018-09-01T10:41:10.755Z,4900.00
2018-09-01T10:42:10.744Z,4688.00
2018-09-01T10:43:10.734Z,4568.00
2018-09-01T10:44:10.727Z,3592.00
2018-09-01T10:45:10.796Z,3196.00
2018-09-01T10:46:10.708Z,3108.00
2018-09-01T10:47:10.699Z,3248.00
2018-09-01T10:48:10.692Z,3164.00
2018-09-01T10:49:10.686Z,3216.00
2018-09-01T10:50:10.675Z,3276.00
2018-09-01T10:51:10.663Z,4288.00
2018-09-01T10:52:10.663Z,5916.00
2018-09-01T10:53:10.647Z,10792.00
2018-09-01T10:54:11.007Z,10048.00
2018-09-01T10:55:10.630Z,14240.00
2018-09-01T10:56:10.618Z,7424.00
2018-09-01T10:57:10.611Z,4424.00
2018-09-01T10:58:10.601Z,3500.00
2018-09-01T10:59:10.784Z,5580.00
2018-09-01T11:00:10.596Z,6260.00
2018-09-01T11:01:10.584Z,5296.00
2018-09-01T11:02:10.577Z,3604.00
2018-09-01T11:03:10.563Z,5616.00
2018-09-01T11:04:10.579Z,6888.00
2018-09-01T11:05:10.639Z,5836.00
2018-09-01T11:06:10.568Z,5692.00
2018-09-01T11:07:10.532Z,4236.00
2018-09-01T11:08:10.513Z,10072.00
2018-09-01T11:09:10.510Z,2828.00
2018-09-01T11:10:10.546Z,2788.00
2018-09-01T11:11:10.536Z,2968.00
2018-09-01T11:12:10.479Z,3724.00
2018-09-01T11:13:10.481Z,3992.00
2018-09-01T11:14:10.471Z,3368.00
2018-09-01T11:15:10.468Z,3512.00
2018-09-01T11:16:10.458Z,3228.00
2018-09-01T11:17:10.441Z,3284.00
2018-09-01T11:18:10.430Z,3804.00
2018-09-01T11:19:10.435Z,3652.00
2018-09-01T11:20:10.579Z,4036.00
2018-09-01T11:21:10.419Z,4404.00
2018-09-01T11:22:10.403Z,5044.00
2018-09-01T11:23:10.395Z,5504.00
2018-09-01T11:24:10.389Z,5432.00
2018-09-01T11:25:10.387Z,5216.00
2018-09-01T11:26:10.371Z,5592.00
2018-09-01T11:27:10.372Z,5744.00
2018-09-01T11:28:10.461Z,6008.00
2018-09-01T11:29:10.338Z,5572.00
2018-09-01T11:30:10.400Z,5416.00
2018-09-01T11:31:10.328Z,4836.00
2018-09-01T11:32:10.317Z,4556.00
2018-09-01T11:33:10.308Z,4224.00
2018-09-01T11:34:10.312Z,4136.00
2018-09-01T11:35:10.298Z,4092.00
2018-09-01T11:36:10.315Z,4492.00
2018-09-01T11:37:10.285Z,4608.00
2018-09-01T11:38:10.276Z,4908.00
2018-09-01T11:39:10.255Z,4484.00
2018-09-01T11:40:10.255Z,4396.00
2018-09-01T11:41:10.278Z,4348.00
2018-09-01T11:42:10.238Z,4096.00
2018-09-01T11:43:10.382Z,4196.00
2018-09-01T11:44:10.219Z,4232.00
2018-09-01T11:45:10.214Z,3956.00
2018-09-01T11:46:10.225Z,3948.00
2018-09-01T11:47:10.271Z,3628.00
2018-09-01T11:48:10.188Z,3344.00
2018-09-01T11:49:10.180Z,3332.00
2018-09-01T11:50:10.216Z,3640.00
2018-09-01T11:51:10.151Z,3428.00
2018-09-01T11:52:10.181Z,3356.00
2018-09-01T11:53:10.190Z,3260.00
2018-09-01T11:54:10.141Z,3236.00
2018-09-01T11:55:10.122Z,3300.00
2018-09-01T11:56:10.122Z,3356.00
2018-09-01T11:57:10.107Z,3412.00
2018-09-01T11:58:10.478Z,3524.00
2018-09-01T11:59:10.093Z,3756.00
2018-09-01T12:00:10.083Z,4272.00
2018-09-01T12:01:10.078Z,4812.00
2018-09-01T12:02:10.093Z,5500.00
2018-09-01T12:03:10.069Z,5720.00
2018-09-01T12:04:10.086Z,6064.00
2018-09-01T12:05:10.052Z,6072.00
2018-09-01T12:06:10.040Z,5384.00
2018-09-01T12:07:10.039Z,5036.00
2018-09-01T12:08:10.029Z,5376.00
2018-09-01T12:09:10.199Z,5436.00
2018-09-01T12:10:10.010Z,9120.00
2018-09-01T12:11:10.002Z,11772.00
2018-09-01T12:12:09.990Z,6952.00
2018-09-01T12:13:09.986Z,26368.00
2018-09-01T12:14:09.976Z,8216.00
2018-09-01T12:15:09.996Z,7024.00
2018-09-01T12:16:09.966Z,6876.00
2018-09-01T12:17:09.959Z,7344.00
2018-09-01T12:18:09.948Z,13664.00
2018-09-01T12:19:09.973Z,12480.00
2018-09-01T12:20:09.958Z,21248.00
2018-09-01T12:21:09.978Z,12112.00
2018-09-01T12:22:09.990Z,1716.00
2018-09-01T12:23:09.909Z,1348.00
2018-09-01T12:24:09.908Z,1200.00
2018-09-01T12:25:09.886Z,1180.00
2018-09-01T12:26:09.888Z,1260.00
2018-09-01T12:27:09.930Z,1340.00
2018-09-01T12:28:09.915Z,1460.00
2018-09-01T12:29:09.990Z,1604.00
2018-09-01T12:30:09.887Z,1704.00
2018-09-01T12:31:09.848Z,1708.00
2018-09-01T12:32:09.873Z,1692.00
2018-09-01T12:33:09.827Z,1784.00